Brandreth, New York
Current Conditions -  °F | °C
As of 11:51 PM on Friday 24 Oct 2014 (Local Time) from KSLK Reporting Station
Moderate Fog Moderate Fog  
Wind Chill: 35°   Ceiling: 200
Heat Index: 35°   Visibility: 0.5mi
Dew Point: 34°   Wind: 0mph
Humidity: 96%   Direction: NA
Pressure: 29.82"   Gusts: NA
Location:  43.9745°N, 74.5828°W
Report Text: KSLK 250351Z AUTO 00000KT 1/2SM FG VV002 02/01 A2982 RMK AO2 SLP111 T00170011
Loading
Personal Weather Stations






























Interactive Weather Map
Tropical Storm Tracking
New forecast layout! Learn more

10-Day Weather Forecast

Advertisements
Track Severe Weather on mobile